KDVOKCCR

Guest
Details From KDVO - GNOSS FLD
To KCCR - Buchanan Field
Flight Number -
Tags generated
Created
Modified
Stats Distance 26 nm / 47 km
Max Altitude 1,600 ft / 488 m
Waypoints 3
Social Downloads 1
Likes 0
Share VATSIM

Download

Looking for another format? Having issues loading an existing format? Contact us
Advertisement - Login to hide

Notes

Basic altitude profile: - Ascent Rate: 1000ft/min - Ascent Speed: 120kts - Cruise Altitude: 3000ft - Cruise Speed: 120kts - Descent Rate: 1500ft/min - Descent Speed: 120kts Options: - Use NATs: yes - Use PACOTS: yes - Use low airways: yes - Use high airways: yes

Route

KDVO CROIT KCCR

ID Type Via Altitude Latitude Longitude Leg Dist Tot Dist Heading (true) Name
O KDVO APT - 0 ft / 0 m 38.14360˚ -122.55612˚ - 0 nm - GNOSS FLD
CROIT FIX - 1,600 ft / 488 m 38.05622˚ -122.19437˚ 17 nm 17 nm 107° / 107° -
O KCCR APT - 0 ft / 0 m 37.98973˚ -122.05697˚ 7 nm 25 nm 122° / 122° Buchanan Field

Altitude Profile

Advertisement - Login to hide

KDVO

Details ICAO KDVO
Name GNOSS FLD
Region United States
Timezone America/Los_Angeles (UTC-8.0)
Stats Elevation 2 ft / 1 m (AMSL)
Location 38.143602° -122.556123°
Runways 1
Magnetic Variation 13.606° E

METAR

KDVO 122155Z AUTO 11004KT 10SM CLR 17/02 A3024 RMK AO2

Decode

TAF

Not found

Departure Runways

ID Width Length Bearing (true) Bearing (mag) Surface Threshold Offset Overrun Length
13 75 ft / 23 m 3,304 ft / 1,007 m 148.57° 134.96° Asphalt 0 ft / 0 m 98 ft / 30 m
31 75 ft / 23 m 3,304 ft / 1,007 m 328.57° 314.96° Asphalt 0 ft / 0 m 125 ft / 38 m

KCCR

Details ICAO KCCR (CCR)
Name Buchanan Field
Region United States
Timezone America/Los_Angeles (UTC-8.0)
Stats Elevation 26 ft / 8 m (AMSL)
Location 37.989732° -122.056967°
Runways 4
Magnetic Variation 13.496° E

METAR

KCCR 122153Z 03004KT 10SM CLR 18/04 A3024 RMK AO2 SLP226 T01830044

Decode

TAF

Not found

Destination Runways

ID Width Length Bearing (true) Bearing (mag) Surface Threshold Offset Overrun Length
01L 151 ft / 46 m 5,007 ft / 1,526 m 23.44° 9.94° Asphalt 0 ft / 0 m 200 ft / 61 m
01R 75 ft / 23 m 2,774 ft / 846 m 23.45° 9.95° Asphalt 0 ft / 0 m 0 ft / 0 m
14L 151 ft / 46 m 4,608 ft / 1,405 m 153.63° 140.13° Asphalt 299 ft / 91 m 0 ft / 0 m
14R 75 ft / 23 m 2,803 ft / 854 m 153.62° 140.12° Asphalt 0 ft / 0 m 0 ft / 0 m
19L 75 ft / 23 m 2,774 ft / 846 m 203.45° 189.95° Asphalt 0 ft / 0 m 0 ft / 0 m
19R 151 ft / 46 m 5,007 ft / 1,526 m 203.44° 189.94° Asphalt 600 ft / 183 m 151 ft / 46 m
32L 75 ft / 23 m 2,803 ft / 854 m 333.62° 320.12° Asphalt 0 ft / 0 m 0 ft / 0 m
32R 151 ft / 46 m 4,608 ft / 1,405 m 333.63° 320.13° Asphalt 351 ft / 107 m 0 ft / 0 m

Approach Navaids

Runway Type Ident Frequency Range Bearing (true) Bearing (mag) Slope Elevation
19R Localiser ICCR 108.50 MHz 18 nm / 33 km 198.44° 184.95° - 26 ft / 8 m (AMSL)